createdAt,value
2018-04-07T00:01:25.734Z,64.27
2018-04-07T00:04:08.240Z,65.10
2018-04-07T00:06:57.404Z,65.05
2018-04-07T00:09:45.255Z,65.11
2018-04-07T00:12:30.236Z,65.72
2018-04-07T00:20:06.903Z,65.46
2018-04-07T00:22:57.403Z,64.70
2018-04-07T00:25:43.341Z,63.86
2018-04-07T00:28:28.659Z,64.10
2018-04-07T00:34:15.641Z,63.84
2018-04-07T00:39:46.824Z,64.04
2018-04-07T00:42:31.406Z,66.34
2018-04-07T00:45:08.654Z,65.20
2018-04-07T00:47:48.727Z,64.52
2018-04-07T00:50:28.833Z,65.07
2018-04-07T00:56:01.260Z,65.24
2018-04-07T00:58:47.121Z,65.01
2018-04-07T01:01:22.188Z,65.04
2018-04-07T01:03:58.109Z,65.99
2018-04-07T01:15:56.301Z,65.85
2018-04-07T01:18:37.069Z,66.13
2018-04-07T01:21:17.726Z,65.90
2018-04-07T01:23:57.698Z,66.11
2018-04-07T01:29:43.522Z,66.42
2018-04-07T01:32:34.575Z,66.56
2018-04-07T01:35:11.637Z,66.84
2018-04-07T01:37:49.994Z,67.58
2018-04-07T01:40:25.073Z,68.00
2018-04-07T01:46:05.422Z,69.09
2018-04-07T01:48:40.867Z,68.61
2018-04-07T01:51:23.338Z,68.92
2018-04-07T01:56:38.586Z,68.25
2018-04-07T01:59:17.004Z,67.61
2018-04-07T02:02:14.779Z,67.47
2018-04-07T02:04:50.693Z,67.82
2018-04-07T02:07:28.112Z,67.39
2018-04-07T02:10:07.122Z,67.57
2018-04-07T02:15:54.559Z,67.01
2018-04-07T02:18:33.978Z,67.05
2018-04-07T02:21:09.721Z,67.06
2018-04-07T02:23:57.001Z,67.53
2018-04-07T02:26:48.623Z,67.82
2018-04-07T02:29:37.079Z,68.11
2018-04-07T02:32:18.942Z,68.44
2018-04-07T02:34:57.845Z,67.23
2018-04-07T02:40:27.112Z,67.44
2018-04-07T02:46:11.235Z,68.01
2018-04-07T02:50:23.732Z,68.33
2018-04-07T02:53:24.036Z,68.33
2018-04-07T03:04:17.762Z,68.79
2018-04-07T03:09:51.277Z,68.53
2018-04-07T03:12:37.980Z,68.10
2018-04-07T03:15:15.015Z,68.06
2018-04-07T03:17:56.808Z,67.90
2018-04-07T03:20:33.024Z,68.41
2018-04-07T03:23:09.925Z,68.92
2018-04-07T03:25:59.974Z,68.14
2018-04-07T03:28:49.610Z,68.56
2018-04-07T03:31:40.097Z,68.30
2018-04-07T03:34:20.522Z,68.62
2018-04-07T03:36:57.960Z,68.40
2018-04-07T03:39:36.225Z,67.99
2018-04-07T03:42:28.171Z,67.75
2018-04-07T03:49:35.765Z,68.59
2018-04-07T03:52:09.189Z,68.33
2018-04-07T03:54:43.200Z,69.09
2018-04-07T03:57:16.924Z,68.81
2018-04-07T03:59:50.302Z,68.03
2018-04-07T04:02:23.990Z,68.90
2018-04-07T04:04:57.278Z,68.46
2018-04-07T04:07:30.682Z,69.00
2018-04-07T04:10:05.420Z,69.93
2018-04-07T04:12:38.880Z,70.22
2018-04-07T04:15:12.303Z,69.46
2018-04-07T04:17:46.619Z,69.12
2018-04-07T04:20:20.153Z,69.88
2018-04-07T04:22:53.534Z,69.23
2018-04-07T04:25:27.912Z,69.32
2018-04-07T04:28:01.326Z,71.18
2018-04-07T04:30:34.945Z,71.14
2018-04-07T04:33:12.096Z,71.50
2018-04-07T04:35:49.303Z,72.36
2018-04-07T04:38:23.381Z,72.20
2018-04-07T04:40:57.178Z,72.18
2018-04-07T04:43:31.035Z,71.21
2018-04-07T04:46:04.385Z,71.36
2018-04-07T04:48:37.843Z,70.78
2018-04-07T04:51:12.008Z,70.98
2018-04-07T04:53:45.656Z,71.25
2018-04-07T04:56:19.440Z,71.31
2018-04-07T04:58:53.439Z,71.80
2018-04-07T05:01:26.778Z,71.51
2018-04-07T05:04:01.582Z,71.46
2018-04-07T05:06:35.202Z,72.16
2018-04-07T05:09:08.517Z,71.65
2018-04-07T05:11:43.194Z,71.52
2018-04-07T05:14:16.859Z,71.81
2018-04-07T05:16:50.281Z,71.63
2018-04-07T05:19:23.726Z,71.74
2018-04-07T05:21:58.375Z,71.56
2018-04-07T05:24:32.291Z,71.37
2018-04-07T05:27:05.770Z,71.37
2018-04-07T05:29:39.477Z,70.87
2018-04-07T05:32:13.132Z,70.60
2018-04-07T05:34:47.034Z,70.50
2018-04-07T05:37:21.745Z,70.07
2018-04-07T05:39:55.141Z,70.30
2018-04-07T05:42:28.843Z,69.99
2018-04-07T05:45:02.569Z,69.87
2018-04-07T05:47:36.486Z,69.61
2018-04-07T05:50:09.843Z,68.87
2018-04-07T05:52:43.386Z,69.34
2018-04-07T05:55:19.963Z,68.92
2018-04-07T05:57:54.930Z,69.10
2018-04-07T06:00:28.293Z,68.55
2018-04-07T06:03:02.687Z,68.45
2018-04-07T06:05:35.960Z,68.15
2018-04-07T06:08:09.602Z,67.64
2018-04-07T06:10:43.072Z,67.63
2018-04-07T06:13:16.458Z,67.07
2018-04-07T06:15:49.876Z,66.89
2018-04-07T06:18:23.830Z,66.76
2018-04-07T06:20:57.840Z,66.77
2018-04-07T06:23:31.321Z,67.51
2018-04-07T06:26:05.021Z,66.65
2018-04-07T06:28:44.031Z,66.14
2018-04-07T06:31:17.838Z,66.20
2018-04-07T06:33:51.312Z,65.51
2018-04-07T06:36:26.640Z,65.14
2018-04-07T06:38:59.905Z,64.56
2018-04-07T06:41:33.418Z,64.38
2018-04-07T06:44:07.802Z,64.47
2018-04-07T06:46:44.465Z,63.95
2018-04-07T06:49:18.762Z,64.34
2018-04-07T06:51:52.450Z,63.32
2018-04-07T06:54:26.722Z,63.10
2018-04-07T06:57:00.890Z,62.39
2018-04-07T06:59:35.396Z,62.74
2018-04-07T07:02:09.523Z,61.91
2018-04-07T07:04:43.219Z,61.44
2018-04-07T07:07:16.900Z,61.52
2018-04-07T07:09:50.590Z,61.35
2018-04-07T07:12:24.215Z,60.63
2018-04-07T07:14:57.497Z,59.89
2018-04-07T07:17:31.245Z,59.52
2018-04-07T07:20:04.729Z,59.32
2018-04-07T07:22:38.487Z,58.71
2018-04-07T07:25:13.725Z,58.39
2018-04-07T07:27:48.087Z,58.03
2018-04-07T07:30:21.666Z,56.66
2018-04-07T07:32:55.163Z,55.84
2018-04-07T07:35:29.679Z,55.82
2018-04-07T07:38:03.122Z,55.24
2018-04-07T07:40:36.953Z,54.95
2018-04-07T07:43:10.606Z,55.11
2018-04-07T07:45:44.378Z,54.42
2018-04-07T07:48:18.627Z,53.76
2018-04-07T07:50:56.576Z,52.12
2018-04-07T07:53:30.900Z,52.52
2018-04-07T07:56:04.458Z,52.32
2018-04-07T07:58:38.003Z,51.79
2018-04-07T08:01:11.981Z,51.89
2018-04-07T08:03:46.075Z,51.47
2018-04-07T08:06:20.547Z,51.06
2018-04-07T08:08:55.444Z,50.34
2018-04-07T08:11:28.808Z,50.08
2018-04-07T08:14:02.354Z,47.90
2018-04-07T08:16:37.164Z,46.21
2018-04-07T08:19:10.948Z,45.07
2018-04-07T08:21:45.605Z,44.53
2018-04-07T08:24:19.762Z,42.96
2018-04-07T08:26:53.205Z,42.96
2018-04-07T08:29:26.846Z,41.56
2018-04-07T08:32:01.373Z,41.95
2018-04-07T08:34:35.330Z,41.49
2018-04-07T08:37:08.658Z,41.78
2018-04-07T08:39:43.526Z,41.67
2018-04-07T08:42:17.548Z,40.89
2018-04-07T08:44:51.518Z,40.35
2018-04-07T08:47:26.611Z,40.57
2018-04-07T08:50:14.084Z,38.66
2018-04-07T08:52:48.545Z,37.86
2018-04-07T08:55:23.920Z,38.17
2018-04-07T08:57:57.908Z,37.89
2018-04-07T09:00:31.633Z,37.48
2018-04-07T09:03:05.428Z,36.72
2018-04-07T09:05:39.128Z,36.74
2018-04-07T09:08:12.823Z,35.95
2018-04-07T09:10:47.295Z,36.71
2018-04-07T09:13:21.396Z,35.02
2018-04-07T09:15:55.287Z,36.54
2018-04-07T09:18:29.155Z,37.08
2018-04-07T09:21:03.191Z,36.12
2018-04-07T09:23:36.698Z,34.81
2018-04-07T09:26:10.163Z,35.41
2018-04-07T09:28:44.021Z,35.64
2018-04-07T09:31:23.509Z,35.92
2018-04-07T09:33:57.340Z,34.49
2018-04-07T09:36:31.884Z,34.34
2018-04-07T09:39:06.664Z,33.49
2018-04-07T09:41:44.231Z,34.57
2018-04-07T09:44:20.354Z,33.60
2018-04-07T09:46:54.679Z,34.21
2018-04-07T09:49:29.079Z,33.29
2018-04-07T09:52:02.816Z,33.99
2018-04-07T09:54:38.856Z,34.51
2018-04-07T09:57:13.268Z,32.52
2018-04-07T09:59:48.389Z,35.62
2018-04-07T10:02:22.060Z,33.14
2018-04-07T10:04:55.851Z,32.00
2018-04-07T10:07:34.717Z,33.07
2018-04-07T10:10:14.886Z,32.46
2018-04-07T10:12:52.517Z,31.81
2018-04-07T10:15:26.473Z,32.31
2018-04-07T10:18:00.439Z,32.83
2018-04-07T10:20:34.600Z,32.35
2018-04-07T10:23:08.122Z,33.64
2018-04-07T10:25:41.896Z,33.14
2018-04-07T10:28:16.389Z,31.07
2018-04-07T10:30:51.379Z,29.94
2018-04-07T10:33:24.918Z,31.71
2018-04-07T10:35:59.198Z,30.90
2018-04-07T10:38:34.979Z,32.70
2018-04-07T10:41:08.579Z,30.47
2018-04-07T10:43:42.626Z,29.56
2018-04-07T10:46:17.135Z,29.49
2018-04-07T10:51:22.949Z,34.13
2018-04-07T10:53:57.694Z,33.49
2018-04-07T10:56:32.487Z,32.54
2018-04-07T10:59:06.339Z,34.21
2018-04-07T11:01:40.511Z,33.96
2018-04-07T11:04:14.777Z,33.39
2018-04-07T11:06:50.701Z,32.27
2018-04-07T11:09:25.493Z,31.84
2018-04-07T11:12:05.870Z,33.40
2018-04-07T11:14:42.359Z,33.49
2018-04-07T11:17:16.827Z,33.99
2018-04-07T11:19:50.474Z,33.51
2018-04-07T11:22:28.956Z,32.83
2018-04-07T11:25:03.932Z,33.16
2018-04-07T11:27:39.329Z,33.28
2018-04-07T11:30:12.755Z,33.46
2018-04-07T11:32:46.778Z,32.50
2018-04-07T11:35:21.005Z,33.08
2018-04-07T11:37:54.818Z,32.46
2018-04-07T11:40:28.752Z,32.87
2018-04-07T11:43:03.943Z,33.13
2018-04-07T11:45:38.036Z,32.46
2018-04-07T11:48:12.221Z,34.16
2018-04-07T11:50:47.677Z,35.27
2018-04-07T11:53:26.029Z,33.55
2018-04-07T11:56:01.416Z,32.85
2018-04-07T11:58:34.795Z,32.92
2018-04-07T12:01:08.446Z,32.77
2018-04-07T12:03:42.647Z,32.20
2018-04-07T12:06:18.253Z,31.45
2018-04-07T12:08:51.652Z,31.65
2018-04-07T12:11:27.725Z,32.16
2018-04-07T12:14:01.235Z,31.96
2018-04-07T12:16:34.819Z,33.25
2018-04-07T12:19:12.028Z,32.76
2018-04-07T12:21:47.284Z,31.73
2018-04-07T12:24:20.844Z,31.60
2018-04-07T12:26:54.375Z,30.59
2018-04-07T12:29:28.849Z,30.71
2018-04-07T12:32:02.454Z,31.22
2018-04-07T12:36:59.300Z,32.14
2018-04-07T12:39:33.138Z,31.65
2018-04-07T12:42:07.850Z,31.20
2018-04-07T12:44:42.977Z,30.97
2018-04-07T12:47:18.614Z,30.89
2018-04-07T12:49:56.673Z,29.46
2018-04-07T12:52:31.789Z,29.70
2018-04-07T12:55:05.593Z,30.01
2018-04-07T12:57:40.048Z,29.50
2018-04-07T13:00:14.473Z,30.15
2018-04-07T13:02:48.985Z,29.22
2018-04-07T13:05:22.594Z,30.28
2018-04-07T13:07:56.101Z,29.27
2018-04-07T13:10:30.049Z,30.30
2018-04-07T13:13:07.488Z,30.77
2018-04-07T13:15:46.405Z,30.21
2018-04-07T13:18:23.377Z,29.77
2018-04-07T13:20:57.563Z,28.67
2018-04-07T13:23:31.751Z,28.74
2018-04-07T13:29:28.555Z,27.62
2018-04-07T13:32:02.195Z,29.80
2018-04-07T13:34:36.258Z,27.79
2018-04-07T13:37:10.066Z,27.91
2018-04-07T13:39:45.338Z,27.40
2018-04-07T13:42:19.306Z,29.04
2018-04-07T13:44:53.424Z,26.16
2018-04-07T13:47:27.525Z,25.95
2018-04-07T13:50:01.093Z,27.88
2018-04-07T13:52:34.922Z,26.59
2018-04-07T13:55:08.573Z,26.75
2018-04-07T13:57:42.058Z,26.48
2018-04-07T14:00:17.276Z,26.37
2018-04-07T14:02:51.078Z,27.31
2018-04-07T14:05:32.907Z,27.24
2018-04-07T14:08:14.449Z,26.80
2018-04-07T14:10:52.855Z,27.10
2018-04-07T14:13:29.820Z,27.25
2018-04-07T14:16:05.060Z,26.48
2018-04-07T14:18:46.336Z,26.06
2018-04-07T14:21:23.472Z,26.93
2018-04-07T14:23:57.168Z,26.70
2018-04-07T14:26:31.344Z,27.65
2018-04-07T14:29:05.336Z,27.65
2018-04-07T14:31:42.397Z,27.13
2018-04-07T14:34:21.548Z,28.47
2018-04-07T14:37:03.348Z,26.85
2018-04-07T14:39:37.782Z,27.09
2018-04-07T14:42:11.834Z,27.13
2018-04-07T14:44:46.668Z,26.89
2018-04-07T14:47:20.083Z,27.97
2018-04-07T14:49:58.287Z,27.07
2018-04-07T14:52:34.384Z,26.31
2018-04-07T14:55:09.635Z,26.38
2018-04-07T14:57:46.050Z,26.84
2018-04-07T15:00:23.271Z,27.08
2018-04-07T15:02:58.355Z,25.62
2018-04-07T15:05:35.453Z,24.52
2018-04-07T15:08:09.014Z,24.41
2018-04-07T15:10:43.018Z,24.50
2018-04-07T15:13:20.210Z,24.56
2018-04-07T15:15:53.825Z,23.89
2018-04-07T15:18:29.837Z,24.56
2018-04-07T15:21:03.351Z,24.21
2018-04-07T15:23:36.904Z,24.26
2018-04-07T15:26:11.547Z,24.60
2018-04-07T15:28:52.143Z,25.10
2018-04-07T15:31:33.199Z,24.39
2018-04-07T15:34:10.797Z,24.60
2018-04-07T15:36:44.407Z,24.39
2018-04-07T15:39:17.882Z,24.42
2018-04-07T15:41:52.161Z,25.12
2018-04-07T15:44:26.009Z,24.39
2018-04-07T15:47:00.913Z,24.61
2018-04-07T15:49:34.776Z,25.23
2018-04-07T15:52:12.240Z,25.70
2018-04-07T15:58:09.089Z,30.93
2018-04-07T16:00:43.935Z,28.49
2018-04-07T16:03:17.981Z,26.99
2018-04-07T16:05:53.958Z,28.76
2018-04-07T16:08:27.447Z,27.46
2018-04-07T16:11:01.643Z,27.95
2018-04-07T16:13:36.984Z,28.08
2018-04-07T16:16:16.131Z,27.71
2018-04-07T16:18:50.082Z,28.50
2018-04-07T16:21:33.683Z,27.99
2018-04-07T16:24:07.801Z,28.23
2018-04-07T16:26:42.153Z,28.58
2018-04-07T16:29:18.296Z,28.63
2018-04-07T16:31:59.584Z,28.40
2018-04-07T16:34:33.665Z,29.58
2018-04-07T16:37:08.215Z,30.32
2018-04-07T16:39:43.094Z,30.20
2018-04-07T16:42:18.594Z,30.33
2018-04-07T16:44:53.078Z,30.07
2018-04-07T16:47:29.951Z,31.24
2018-04-07T16:50:04.298Z,31.07
2018-04-07T16:52:39.388Z,32.30
2018-04-07T16:55:13.396Z,31.42
2018-04-07T16:57:47.178Z,32.54
2018-04-07T17:00:21.761Z,33.27
2018-04-07T17:02:55.171Z,35.07
2018-04-07T17:05:29.002Z,35.73
2018-04-07T17:08:02.661Z,35.78
2018-04-07T17:10:36.618Z,37.50
2018-04-07T17:13:13.978Z,37.46
2018-04-07T17:15:49.181Z,39.40
2018-04-07T17:18:25.156Z,40.81
2018-04-07T17:20:59.291Z,41.18
2018-04-07T17:23:33.346Z,41.16
2018-04-07T17:26:08.783Z,41.53
2018-04-07T17:28:43.711Z,43.62
2018-04-07T17:31:18.452Z,44.33
2018-04-07T17:33:53.283Z,44.75
2018-04-07T17:36:27.430Z,44.38
2018-04-07T17:39:02.133Z,45.26
2018-04-07T17:41:36.432Z,45.68
2018-04-07T17:44:10.261Z,46.23
2018-04-07T17:46:51.087Z,46.37
2018-04-07T17:49:30.508Z,46.25
2018-04-07T17:52:04.391Z,47.08
2018-04-07T17:54:37.962Z,47.66
2018-04-07T17:57:11.804Z,47.25
2018-04-07T17:59:45.891Z,47.85
2018-04-07T18:02:19.590Z,47.37
2018-04-07T18:04:53.186Z,47.75
2018-04-07T18:07:29.388Z,47.91
2018-04-07T18:10:02.907Z,47.85
2018-04-07T18:12:41.649Z,48.50
2018-04-07T18:15:16.598Z,48.45
2018-04-07T18:17:51.896Z,48.66
2018-04-07T18:20:25.674Z,48.85
2018-04-07T18:22:59.739Z,49.24
2018-04-07T18:25:34.448Z,49.21
2018-04-07T18:28:08.905Z,49.86
2018-04-07T18:30:43.536Z,49.87
2018-04-07T18:33:17.469Z,50.50
2018-04-07T18:35:52.611Z,50.26
2018-04-07T18:38:27.204Z,49.98
2018-04-07T18:41:02.051Z,49.85
2018-04-07T18:43:36.400Z,50.61
2018-04-07T18:46:10.320Z,51.25
2018-04-07T18:48:44.812Z,51.25
2018-04-07T18:51:18.698Z,51.44
2018-04-07T18:53:52.798Z,52.19
2018-04-07T18:56:26.247Z,52.35
2018-04-07T18:59:00.018Z,52.83
2018-04-07T19:01:34.405Z,53.01
2018-04-07T19:04:08.430Z,54.06
2018-04-07T19:06:45.919Z,55.12
2018-04-07T19:09:19.454Z,55.38
2018-04-07T19:11:53.091Z,54.41
2018-04-07T19:14:26.594Z,55.50
2018-04-07T19:17:00.122Z,55.97
2018-04-07T19:19:33.777Z,55.33
2018-04-07T19:22:07.313Z,55.50
2018-04-07T19:24:43.635Z,55.41
2018-04-07T19:27:20.826Z,55.23
2018-04-07T19:29:58.451Z,55.85
2018-04-07T19:32:32.104Z,55.06
2018-04-07T19:35:06.262Z,55.58
2018-04-07T19:37:40.038Z,55.67
2018-04-07T19:40:49.987Z,55.92
2018-04-07T19:43:33.874Z,56.26
2018-04-07T19:46:07.335Z,56.32
2018-04-07T19:48:40.950Z,56.34
2018-04-07T19:51:14.514Z,56.24
2018-04-07T19:53:48.148Z,56.66
2018-04-07T19:56:22.022Z,57.14
2018-04-07T19:58:55.245Z,57.15
2018-04-07T20:01:28.624Z,57.06
2018-04-07T20:04:02.657Z,57.24
2018-04-07T20:06:36.493Z,57.68
2018-04-07T20:09:10.298Z,58.03
2018-04-07T20:11:43.950Z,58.09
2018-04-07T20:14:17.459Z,58.43
2018-04-07T20:16:50.771Z,59.23
2018-04-07T20:19:24.628Z,60.18
2018-04-07T20:21:57.938Z,60.95
2018-04-07T20:24:31.237Z,61.40
2018-04-07T20:27:05.111Z,61.36
2018-04-07T20:29:38.646Z,61.25
2018-04-07T20:32:11.917Z,61.19
2018-04-07T20:34:46.091Z,61.65
2018-04-07T20:37:19.352Z,61.61
2018-04-07T20:39:52.632Z,61.94
2018-04-07T20:42:28.766Z,62.55
2018-04-07T20:45:10.585Z,63.41
2018-04-07T20:47:50.642Z,63.44
2018-04-07T20:50:24.175Z,63.79
2018-04-07T20:52:57.394Z,64.00
2018-04-07T20:55:31.208Z,64.22
2018-04-07T20:58:04.734Z,64.43
2018-04-07T21:00:38.116Z,64.33
2018-04-07T21:03:11.844Z,64.42
2018-04-07T21:05:45.250Z,64.26
2018-04-07T21:08:18.670Z,64.35
2018-04-07T21:10:52.466Z,64.79
2018-04-07T21:13:26.003Z,65.35
2018-04-07T21:15:59.350Z,65.70
2018-04-07T21:18:32.979Z,65.84
2018-04-07T21:21:06.405Z,65.82
2018-04-07T21:23:39.765Z,66.08
2018-04-07T21:26:13.586Z,65.90
2018-04-07T21:28:46.875Z,65.98
2018-04-07T21:31:20.418Z,65.82
2018-04-07T21:33:53.940Z,65.59
2018-04-07T21:36:27.308Z,65.54
2018-04-07T21:39:00.983Z,65.51
2018-04-07T21:41:34.870Z,65.88
2018-04-07T21:44:08.175Z,66.33
2018-04-07T21:46:41.741Z,66.79
2018-04-07T21:49:15.250Z,67.17
2018-04-07T21:51:48.511Z,67.59
2018-04-07T21:54:21.993Z,67.84
2018-04-07T21:56:56.082Z,68.22
2018-04-07T21:59:29.311Z,67.88
2018-04-07T22:02:03.200Z,67.05
2018-04-07T22:04:36.871Z,67.02
2018-04-07T22:07:10.249Z,66.92
2018-04-07T22:09:43.554Z,67.29
2018-04-07T22:12:17.170Z,67.11
2018-04-07T22:14:50.767Z,66.61
2018-04-07T22:17:24.686Z,67.01
2018-04-07T22:19:59.609Z,67.66
2018-04-07T22:22:33.246Z,68.14
2018-04-07T22:25:06.751Z,68.60
2018-04-07T22:27:40.346Z,69.21
2018-04-07T22:30:14.166Z,69.17
2018-04-07T22:32:47.694Z,69.49
2018-04-07T22:35:21.311Z,69.68
2018-04-07T22:37:54.659Z,69.85
2018-04-07T22:40:28.400Z,69.97
2018-04-07T22:43:02.167Z,70.27
2018-04-07T22:45:35.563Z,70.46
2018-04-07T22:48:09.148Z,70.32
2018-04-07T22:50:42.924Z,70.72
2018-04-07T22:53:16.265Z,71.71
2018-04-07T22:55:51.077Z,71.49
2018-04-07T22:58:24.513Z,71.48
2018-04-07T23:00:58.652Z,71.27
2018-04-07T23:03:32.230Z,71.14
2018-04-07T23:06:05.833Z,71.27
2018-04-07T23:08:39.112Z,71.50
2018-04-07T23:11:12.771Z,71.58
2018-04-07T23:13:46.180Z,71.79
2018-04-07T23:16:19.494Z,72.00
2018-04-07T23:18:53.088Z,72.07
2018-04-07T23:21:26.850Z,72.11
2018-04-07T23:24:00.062Z,72.04
2018-04-07T23:26:33.712Z,71.95
2018-04-07T23:29:07.159Z,71.97
2018-04-07T23:31:40.783Z,71.99
2018-04-07T23:34:14.395Z,71.71
2018-04-07T23:36:47.951Z,71.48
2018-04-07T23:39:21.339Z,71.66
2018-04-07T23:41:55.933Z,72.75
2018-04-07T23:44:29.329Z,72.93
2018-04-07T23:47:02.842Z,72.55
2018-04-07T23:49:36.839Z,72.69
2018-04-07T23:52:10.244Z,72.72
2018-04-07T23:54:43.486Z,72.62
2018-04-07T23:57:18.213Z,72.23
2018-04-07T23:59:51.651Z,72.02
